地図

経路データ

SID SEASON NUMBER BASIN SUBBASIN NAME ISO_TIME NATURE LAT LON WMO_WIND WMO_PRES WMO_AGENCY TRACK_TYPE DIST2LAND LANDFALL IFLAG USA_AGENCY USA_ATCF_ID USA_LAT USA_LON USA_RECORD USA_STATUS USA_WIND USA_PRES USA_SSHS USA_R34_NE USA_R34_SE USA_R34_SW USA_R34_NW USA_R50_NE USA_R50_SE USA_R50_SW USA_R50_NW USA_R64_NE USA_R64_SE USA_R64_SW USA_R64_NW USA_POCI USA_ROCI USA_RMW USA_EYE TOKYO_LAT TOKYO_LON TOKYO_GRADE TOKYO_WIND TOKYO_PRES TOKYO_R50_DIR TOKYO_R50_LONG TOKYO_R50_SHORT TOKYO_R30_DIR TOKYO_R30_LONG TOKYO_R30_SHORT TOKYO_LAND CMA_LAT CMA_LON CMA_CAT CMA_WIND CMA_PRES HKO_LAT HKO_LON HKO_CAT HKO_WIND HKO_PRES NEWDELHI_LAT NEWDELHI_LON NEWDELHI_GRADE NEWDELHI_WIND NEWDELHI_PRES NEWDELHI_CI NEWDELHI_DP NEWDELHI_POCI REUNION_LAT REUNION_LON REUNION_TYPE REUNION_WIND REUNION_PRES REUNION_TNUM REUNION_CI REUNION_RMW REUNION_R34_NE REUNION_R34_SE REUNION_R34_SW REUNION_R34_NW REUNION_R50_NE REUNION_R50_SE REUNION_R50_SW REUNION_R50_NW REUNION_R64_NE REUNION_R64_SE REUNION_R64_SW REUNION_R64_NW BOM_LAT BOM_LON BOM_TYPE BOM_WIND BOM_PRES BOM_TNUM BOM_CI BOM_RMW BOM_R34_NE BOM_R34_SE BOM_R34_SW BOM_R34_NW BOM_R50_NE BOM_R50_SE BOM_R50_SW BOM_R50_NW BOM_R64_NE BOM_R64_SE BOM_R64_SW BOM_R64_NW BOM_ROCI BOM_POCI BOM_EYE BOM_POS_METHOD BOM_PRES_METHOD NADI_LAT NADI_LON NADI_CAT NADI_WIND NADI_PRES WELLINGTON_LAT WELLINGTON_LON WELLINGTON_WIND WELLINGTON_PRES DS824_LAT DS824_LON DS824_STAGE DS824_WIND DS824_PRES TD9636_LAT TD9636_LON TD9636_STAGE TD9636_WIND TD9636_PRES TD9635_LAT TD9635_LON TD9635_WIND TD9635_PRES TD9635_ROCI NEUMANN_LAT NEUMANN_LON NEUMANN_CLASS NEUMANN_WIND NEUMANN_PRES MLC_LAT MLC_LON MLC_CLASS MLC_WIND MLC_PRES USA_GUST BOM_GUST BOM_GUST_PER REUNION_GUST REUNION_GUST_PER USA_SEAHGT USA_SEARAD_NE USA_SEARAD_SE USA_SEARAD_SW USA_SEARAD_NW STORM_SPEED STORM_DIR
1997252N10171 1997 80 WP MM DAVID 1997-09-09 00:00:00 NR 9.90000 171.100 main 2346 2330 O_____________ jtwc_wp WP211997 9.90000 171.100 15 -1 6 279
1997252N10171 1997 80 WP MM DAVID 1997-09-09 03:00:00 NR 9.94755 170.800 main 2330 2325 P_____________ WP211997 9.94755 170.800 15 -1 6 280
1997252N10171 1997 80 WP MM DAVID 1997-09-09 06:00:00 NR 10.0000 170.500 main 2325 2314 O_____________ jtwc_wp WP211997 10.0000 170.500 15 -1 6 281
1997252N10171 1997 80 WP MM DAVID 1997-09-09 09:00:00 NR 10.0575 170.200 main 2319 2305 P_____________ WP211997 10.0575 170.200 17 -1 6 280
1997252N10171 1997 80 WP MM DAVID 1997-09-09 12:00:00 NR 10.1000 169.900 main 2305 2290 O_____________ jtwc_wp WP211997 10.1000 169.900 20 -1 6 275
1997252N10171 1997 80 WP MM DAVID 1997-09-09 15:00:00 NR 10.1075 169.600 main 2290 2276 P_____________ WP211997 10.1075 169.600 20 -1 6 270
1997252N10171 1997 80 WP MM DAVID 1997-09-09 18:00:00 NR 10.1000 169.300 main 2276 2263 O_____________ jtwc_wp WP211997 10.1000 169.300 20 -1 6 267
1997252N10171 1997 80 WP MM DAVID 1997-09-09 21:00:00 NR 10.0775 168.977 main 2263 2250 P_____________ WP211997 10.0775 168.977 20 -1 6 270
1997252N10171 1997 80 WP MM DAVID 1997-09-10 00:00:00 NR 10.1000 168.700 main 2250 2245 O_____________ jtwc_wp WP211997 10.1000 168.700 20 -1 5 288
1997252N10171 1997 80 WP MM DAVID 1997-09-10 03:00:00 NR 10.2425 168.475 main 2251 2251 P_____________ WP211997 10.2425 168.475 22 -1 4 316
1997252N10171 1997 80 WP MM DAVID 1997-09-10 06:00:00 NR 10.4000 168.400 main 2268 2268 O_____________ jtwc_wp WP211997 10.4000 168.400 25 -1 2 16
1997252N10171 1997 80 WP MM DAVID 1997-09-10 09:00:00 NR 10.4800 168.540 main 2283 2283 P_____________ WP211997 10.4800 168.540 25 -1 4 76
1997252N10171 1997 80 WP MM DAVID 1997-09-10 12:00:00 NR 10.5000 168.800 main 2295 2294 O_____________ jtwc_wp WP211997 10.5000 168.800 25 -1 5 96
1997252N10171 1997 80 WP MM DAVID 1997-09-10 15:00:00 NR 10.4275 169.043 main 2294 2294 P_____________ WP211997 10.4275 169.043 25 -1 5 102
1997252N10171 1997 80 WP MM DAVID 1997-09-10 18:00:00 NR 10.4000 169.300 main 2307 2307 O_____________ jtwc_wp WP211997 10.4000 169.300 25 -1 5 75
1997252N10171 1997 80 WP MM DAVID 1997-09-10 21:00:00 NR 10.5625 169.557 main 2341 2341 P_____________ WP211997 10.5625 169.557 25 -1 6 51
1997252N10171 1997 80 WP MM DAVID 1997-09-11 00:00:00 NR 10.8000 169.800 main 2370 2370 O_____________ jtwc_wp WP211997 10.8000 169.800 25 -1 6 47
1997252N10171 1997 80 WP MM DAVID 1997-09-11 03:00:00 NR 10.9850 170.023 main 2400 2400 P_____________ WP211997 10.9850 170.023 25 -1 4 67
1997252N10171 1997 80 WP MM DAVID 1997-09-11 06:00:00 TS 10.9600 170.180 1000 tokyo main 2410 2410 OO____________ jtwc_wp WP211997 11.2000 170.200 25 -1 10.0000 170.100 2 1000 0 0 0 3 42
1997252N10171 1997 80 WP MM DAVID 1997-09-11 09:00:00 TS 11.2158 170.230 main 2430 2430 PP____________ WP211997 11.4925 170.352 25 -1 10.6625 169.985 2 1000 0 0 6 357
1997252N10171 1997 80 WP MM DAVID 1997-09-11 12:00:00 TS 11.5500 170.150 1000 tokyo main 2470 2465 OOO___________ jtwc_wp WP211997 11.8000 170.400 25 -1 11.3000 169.900 2 1000 0 0 0 11.3000 169.900 1 29 1000 8 345
1997252N10171 1997 80 WP MM DAVID 1997-09-11 15:00:00 TS 11.9495 170.032 main 2491 2491 PPP___________ WP211997 12.0500 170.295 25 -1 11.8875 169.857 2 1000 0 0 11.8726 169.855 1 29 1000 9 344
1997252N10171 1997 80 WP MM DAVID 1997-09-11 18:00:00 TS 12.3636 169.909 1000 tokyo main 2538 2538 OOO___________ jtwc_wp WP211997 12.3000 170.100 25 -1 12.4000 169.800 2 1000 0 0 0 12.4000 169.800 1 29 1000 9 344
1997252N10171 1997 80 WP MM DAVID 1997-09-11 21:00:00 TS 12.7632 169.786 main 2575 2571 PPP___________ WP211997 12.5999 169.937 27 -1 12.8449 169.710 2 1000 0 0 12.8449 169.710 1 29 1000 8 336
1997252N10171 1997 80 WP MM DAVID 1997-09-12 00:00:00 TS 13.1077 169.562 1000 tokyo main 2597 2593 OOOO__________ jtwc_wp WP211997 12.9000 169.700 30 -1 13.2000 169.500 2 1000 0 0 0 13.2000 169.500 1 29 1000 13.2000 169.500 TD 30 1000 9 315
1997252N10171 1997 80 WP MM DAVID 1997-09-12 03:00:00 TS 13.3850 169.158 main 2612 2608 PPPP__________ WP211997 13.1500 169.337 32 -1 13.4725 169.110 2 1000 0 0 13.4725 169.110 1 29 1000 13.5052 168.993 TD 30 1000 10 301
1997252N10171 1997 80 WP MM DAVID 1997-09-12 06:00:00 TS 13.6400 168.660 1000 tokyo main 2614 2614 OOOO__________ jtwc_wp WP211997 13.4000 168.900 35 0 13.7000 168.600 2 1000 0 0 0 13.7000 168.600 1 29 1000 13.8000 168.500 TD 30 1000 11 299
1997252N10171 1997 80 WP MM DAVID 1997-09-12 09:00:00 TS 13.9257 168.139 main 2613 2602 PPPP__________ WP211997 13.7000 168.450 37 0 13.9651 168.035 2 999 0 0 13.9651 168.035 1 29 1000 14.0724 168.035 TD 32 999 11 299
1997252N10171 1997 80 WP MM DAVID 1997-09-12 12:00:00 TS 14.1750 167.650 998 tokyo main 2610 2591 OOOO__________ jtwc_wp WP211997 14.0000 168.000 40 0 14.2000 167.500 2 998 0 0 0 14.2000 167.500 1 29 1000 14.3000 167.600 TS 35 998 10 298
1997252N10171 1997 80 WP MM DAVID 1997-09-12 15:00:00 TS 14.3705 167.258 main 2600 2582 PPPP__________ WP211997 14.2799 167.592 42 0 14.3648 167.127 2 996 0 0 14.3723 167.127 1 31 997 14.4649 167.185 TS 37 996 8 296
1997252N10171 1997 80 WP MM DAVID 1997-09-12 18:00:00 TS 14.5250 166.900 35 994 tokyo main 2582 2564 OOOO__________ jtwc_wp WP211997 14.5000 167.200 45 0 14.5000 166.800 3 35 994 0 9 100 100 0 14.5000 166.800 2 34 995 14.6000 166.800 TS 40 994 8 291
1997252N10171 1997 80 WP MM DAVID 1997-09-12 21:00:00 TS 14.6537 166.501 main 2573 2553 PPPP__________ WP211997 14.6149 166.800 47 0 14.6500 166.400 3 37 993 0 9 100 100 14.6001 166.362 2 36 993 14.7499 166.442 TS 42 992 8 288
1997252N10171 1997 80 WP MM DAVID 1997-09-13 00:00:00 TS 14.7750 166.125 40 992 tokyo main 2555 2541 OOOO__________ jtwc_wp WP211997 14.7000 166.400 50 0 14.8000 166.000 3 40 992 0 9 100 100 0 14.7000 166.000 2 38 992 14.9000 166.100 TS 45 990 7 291
1997252N10171 1997 80 WP MM DAVID 1997-09-13 03:00:00 TS 14.9118 165.812 main 2543 2537 PPPP__________ WP211997 14.8275 165.992 52 0 14.9424 165.635 3 45 991 0 9 110 110 14.8348 165.877 2 41 991 15.0425 165.742 TS 47 987 7 297
1997252N10171 1997 80 WP MM DAVID 1997-09-13 06:00:00 TS 15.0750 165.525 50 990 tokyo main 2542 2535 OOOO__________ jtwc_wp WP211997 15.0000 165.600 55 0 15.1000 165.300 4 50 990 0 9 120 120 0 15.0000 165.800 2 44 990 15.2000 165.400 STS 50 985 7 303
1997252N10171 1997 80 WP MM DAVID 1997-09-13 09:00:00 TS 15.2743 165.238 main 2541 2534 PPPP__________ WP211997 15.2274 165.242 57 0 15.2924 164.992 4 50 990 0 9 120 120 15.1848 165.625 2 46 987 15.3924 165.092 STS 52 982 7 306
1997252N10171 1997 80 WP MM DAVID 1997-09-13 12:00:00 TS 15.5000 164.925 50 990 tokyo main 2540 2534 OOOO__________ jtwc_wp WP211997 15.5000 164.900 60 0 15.5000 164.700 4 50 990 0 9 120 120 0 15.4000 165.300 3 48 985 15.6000 164.800 STS 55 980 8 303
1997252N10171 1997 80 WP MM DAVID 1997-09-13 15:00:00 TS 15.7151 164.543 main 2534 2532 PPPP__________ WP211997 15.7699 164.565 62 0 15.6850 164.400 4 52 987 0 9 130 130 15.6280 164.708 3 48 985 15.7775 164.500 STS 57 977 9 302
1997252N10171 1997 80 WP MM DAVID 1997-09-13 18:00:00 TS 15.9750 164.150 55 985 tokyo main 2545 2539 OOOO__________ jtwc_wp WP211997 16.1000 164.200 65 1 15.9000 164.100 4 55 985 9 40 40 9 140 140 0 15.9000 164.100 3 48 985 16.0000 164.200 STS 60 975 9 309
1997252N10171 1997 80 WP MM DAVID 1997-09-13 21:00:00 TS 16.2849 163.807 main 2550 2550 PPPP__________ WP211997 16.5275 163.758 67 1 16.1325 163.800 4 57 982 9 45 45 9 150 150 16.1822 163.762 3 53 982 16.2974 163.907 STS 60 975 10 318
1997252N10171 1997 80 WP MM DAVID 1997-09-14 00:00:00 TS 16.7000 163.475 60 980 tokyo main 2570 2570 OOOO__________ jtwc_wp WP211997 17.0000 163.300 70 1 16.5000 163.500 4 60 980 9 50 50 9 160 160 0 16.6000 163.500 3 58 980 16.7000 163.600 STS 60 975 12 327
1997252N10171 1997 80 WP MM DAVID 1997-09-14 03:00:00 TS 17.2611 163.142 main 2606 2606 PPPP__________ WP211997 17.4348 162.907 72 1 17.1124 163.222 4 60 977 9 55 55 9 190 190 17.2775 163.165 3 61 977 17.2199 163.272 STS 62 972 14 330
1997252N10171 1997 80 WP MM DAVID 1997-09-14 06:00:00 TS 17.8750 162.775 60 975 tokyo main 2648 2643 OOOO__________ jtwc_wp WP211997 17.9000 162.500 75 1 17.8000 162.900 4 60 975 9 60 60 9 220 220 0 18.0000 162.800 4 64 975 17.8000 162.900 T 65 970 14 328
1997252N10171 1997 80 WP MM DAVID 1997-09-14 09:00:00 TS 18.4065 162.377 main 2678 2678 PPPP__________ WP211997 18.4349 162.030 80 1 18.3421 162.517 4 62 972 9 65 65 9 235 235 18.5070 162.459 4 64 975 18.3422 162.502 T 67 967 14 322
1997252N10171 1997 80 WP MM DAVID 1997-09-14 12:00:00 TS 18.9500 161.875 65 970 tokyo main 2712 2683 OOOO__________ jtwc_wp WP211997 19.0000 161.500 85 2 18.9000 162.000 5 65 970 9 70 70 9 250 250 0 19.0000 162.000 4 64 975 18.9000 162.000 T 70 965 16 317
1997252N10171 1997 80 WP MM DAVID 1997-09-14 15:00:00 TS 19.5882 161.220 main 2676 2577 PPPP__________ WP211997 19.5573 160.930 90 2 19.6227 161.296 5 67 967 9 75 75 9 275 275 19.6652 161.303 4 66 972 19.5074 161.352 T 70 965 18 313
1997252N10171 1997 80 WP MM DAVID 1997-09-14 18:00:00 TS 20.2000 160.475 70 965 tokyo main 2577 2486 OOOO__________ jtwc_wp WP211997 20.1000 160.300 95 2 20.3000 160.500 5 70 965 9 80 80 9 300 300 0 20.3000 160.500 4 68 970 20.1000 160.600 T 70 965 18 308
1997252N10171 1997 80 WP MM DAVID 1997-09-14 21:00:00 TS 20.6780 159.723 main 2479 2396 PPPP__________ WP211997 20.6224 159.615 95 2 20.7373 159.734 5 72 960 9 95 95 9 325 325 20.7222 159.749 4 72 967 20.6301 159.792 T 72 960 17 303
1997252N10171 1997 80 WP MM DAVID 1997-09-15 00:00:00 TS 21.1000 158.975 75 955 tokyo main 2396 2314 OOOO__________ jtwc_wp WP211997 21.1000 158.900 95 2 21.1000 159.000 5 75 955 9 110 110 9 350 350 0 21.1000 159.000 4 77 965 21.1000 159.000 T 75 955 16 303
1997252N10171 1997 80 WP MM DAVID 1997-09-15 03:00:00 TS 21.5672 158.269 main 2306 2224 PPPP__________ WP211997 21.5374 158.185 95 2 21.5646 158.335 5 77 952 9 115 115 9 362 362 21.6374 158.228 4 77 962 21.5295 158.327 T 75 955 16 304
1997252N10171 1997 80 WP MM DAVID 1997-09-15 06:00:00 TS 21.9750 157.600 80 950 tokyo main 2224 2166 OOOO__________ jtwc_wp WP211997 21.9000 157.500 95 2 22.0000 157.700 5 80 950 9 120 120 9 375 375 0 22.1000 157.500 4 77 960 21.9000 157.700 T 75 955 14 299
1997252N10171 1997 80 WP MM DAVID 1997-09-15 09:00:00 TS 22.2510 156.952 main 2158 2099 PPPP__________ WP211997 22.1647 156.877 95 2 22.3375 157.027 5 82 947 9 125 125 9 375 375 22.2796 156.861 4 82 955 22.2223 157.042 T 77 952 13 293
1997252N10171 1997 80 WP MM DAVID 1997-09-15 12:00:00 TS 22.4750 156.350 85 945 tokyo main 2099 2041 OOOO__________ jtwc_wp WP211997 22.4000 156.300 95 2 22.6000 156.400 5 85 945 9 130 130 9 375 375 0 22.4000 156.300 5 87 950 22.5000 156.400 T 80 950 12 295
1997252N10171 1997 80 WP MM DAVID 1997-09-15 15:00:00 TS 22.7408 155.812 main 2041 1981 PPPP__________ WP211997 22.6997 155.750 95 2 22.8143 155.907 5 85 945 9 130 130 9 375 375 22.6920 155.800 5 87 950 22.7572 155.792 T 80 950 11 298
1997252N10171 1997 80 WP MM DAVID 1997-09-15 18:00:00 TS 23.0000 155.275 85 945 tokyo main 1981 1923 OOOO__________ jtwc_wp WP211997 23.0000 155.200 95 2 23.0000 155.400 5 85 945 9 130 130 9 375 375 0 23.0000 155.300 5 87 950 23.0000 155.200 T 80 950 12 295
1997252N10171 1997 80 WP MM DAVID 1997-09-15 21:00:00 TS 23.2305 154.665 main 1923 1865 PPPP__________ WP211997 23.2572 154.622 95 2 23.1926 154.722 5 85 945 9 130 130 9 375 375 23.2150 154.707 5 87 950 23.2572 154.607 T 80 950 12 291
1997252N10171 1997 80 WP MM DAVID 1997-09-16 00:00:00 TS 23.4500 154.025 85 945 tokyo main 1850 1793 OOOO__________ jtwc_wp WP211997 23.5000 154.000 95 2 23.4000 154.000 5 85 945 9 130 130 9 375 375 0 23.4000 154.100 5 87 950 23.5000 154.000 T 80 950 12 291
1997252N10171 1997 80 WP MM DAVID 1997-09-16 03:00:00 TS 23.6744 153.413 main 1793 1736 PPPP__________ WP211997 23.7572 153.330 95 2 23.6494 153.357 5 85 945 9 130 130 9 375 375 23.5916 153.594 5 87 950 23.6996 153.372 T 77 952 13 291
1997252N10171 1997 80 WP MM DAVID 1997-09-16 06:00:00 TS 23.9000 152.750 85 945 tokyo main 1736 1667 OOOO__________ jtwc_wp WP211997 24.0000 152.600 95 2 23.9000 152.700 5 85 945 9 130 130 9 375 375 0 23.8000 153.000 5 87 950 23.9000 152.700 T 75 955 14 289
1997252N10171 1997 80 WP MM DAVID 1997-09-16 09:00:00 TS 24.1250 151.974 main 1667 1598 PPPP__________ WP211997 24.2073 151.815 92 2 24.0997 151.972 5 85 945 9 120 120 9 375 375 24.0430 152.138 5 87 950 24.1497 151.972 T 75 955 15 287
1997252N10171 1997 80 WP MM DAVID 1997-09-16 12:00:00 TS 24.3500 151.150 85 945 tokyo main 1590 1523 OOOO__________ jtwc_wp WP211997 24.4000 151.000 90 2 24.3000 151.200 5 85 945 9 110 110 9 375 375 0 24.3000 151.200 5 87 950 24.4000 151.200 T 75 955 15 287
1997252N10171 1997 80 WP MM DAVID 1997-09-16 15:00:00 TS 24.5764 150.350 main 1517 1457 PPPP__________ WP211997 24.5921 150.200 87 2 24.5497 150.408 5 82 947 9 105 105 9 375 375 24.5568 150.385 5 87 950 24.6072 150.407 T 75 955 15 287
1997252N10171 1997 80 WP MM DAVID 1997-09-16 18:00:00 TS 24.8000 149.550 80 950 tokyo main 1457 1393 OOOO__________ jtwc_wp WP211997 24.8000 149.400 85 2 24.8000 149.600 5 80 950 9 100 100 9 375 375 0 24.8000 149.600 5 87 950 24.8000 149.600 T 75 955 15 286
1997252N10171 1997 80 WP MM DAVID 1997-09-16 21:00:00 TS 25.0009 148.746 main 1388 1331 PPPP__________ WP211997 25.0421 148.600 82 1 24.9921 148.799 5 77 952 9 95 95 9 375 375 24.9772 148.792 5 82 952 24.9922 148.792 T 75 955 15 286
1997252N10171 1997 80 WP MM DAVID 1997-09-17 00:00:00 TS 25.2250 147.950 75 955 tokyo main 1331 1260 OOOO__________ jtwc_wp WP211997 25.3000 147.800 80 1 25.2000 148.000 5 75 955 9 90 90 9 375 375 0 25.2000 148.000 4 77 955 25.2000 148.000 T 75 955 15 290
1997252N10171 1997 80 WP MM DAVID 1997-09-17 03:00:00 TS 25.5134 147.162 main 1260 1190 PPPP__________ WP211997 25.5349 146.977 80 1 25.4923 147.185 5 75 957 9 85 85 9 375 375 25.5920 147.243 4 77 955 25.4345 147.242 T 75 955 15 293
1997252N10171 1997 80 WP MM DAVID 1997-09-17 06:00:00 TS 25.8250 146.400 75 960 tokyo main 1190 1127 OOOO__________ jtwc_wp WP211997 25.8000 146.200 80 1 25.8000 146.400 5 75 960 9 80 80 9 375 375 0 26.0000 146.500 4 77 955 25.7000 146.500 T 75 955 15 294
1997252N10171 1997 80 WP MM DAVID 1997-09-17 09:00:00 TS 26.1057 145.665 main 1127 1065 PPPP__________ WP211997 26.1344 145.527 80 1 26.0463 145.665 5 75 960 9 80 80 9 375 375 26.2648 145.734 4 77 957 25.9773 145.735 T 75 955 14 294
1997252N10171 1997 80 WP MM DAVID 1997-09-17 12:00:00 TS 26.4000 144.975 75 960 tokyo main 1065 1010 OOOO__________ jtwc_wp WP211997 26.5000 144.900 80 1 26.3000 145.000 5 75 960 9 80 80 9 375 375 0 26.5000 145.000 4 77 960 26.3000 145.000 T 75 955 14 297
1997252N10171 1997 80 WP MM DAVID 1997-09-17 15:00:00 TS 26.7279 144.320 75 960 tokyo main 1006 942 POPP__________ WP211997 26.8498 144.242 75 1 26.6000 144.400 5 75 960 9 80 80 9 375 375 0 26.7772 144.320 4 77 962 26.6847 144.320 T 75 955 14 301
1997252N10171 1997 80 WP MM DAVID 1997-09-17 18:00:00 TS 27.1000 143.650 75 960 tokyo main 942 890 OOOO__________ jtwc_wp WP211997 27.2000 143.600 70 1 27.0000 143.600 5 75 960 9 80 80 9 375 375 0 27.1000 143.700 4 77 965 27.1000 143.700 T 75 955 13 303
1997252N10171 1997 80 WP MM DAVID 1997-09-17 21:00:00 TS 27.4594 143.064 75 960 tokyo main 879 832 POPP__________ WP211997 27.5127 142.940 67 1 27.4000 143.100 5 75 960 9 80 80 9 375 375 0 27.4548 143.112 4 72 967 27.4699 143.104 T 75 955 12 308
1997252N10171 1997 80 WP MM DAVID 1997-09-18 00:00:00 TS 27.8750 142.550 75 960 tokyo main 821 756 OOOO__________ jtwc_wp WP211997 27.9000 142.400 65 1 27.8000 142.600 5 75 960 9 80 80 9 375 375 0 27.9000 142.600 4 68 970 27.9000 142.600 T 75 955 13 321
1997252N10171 1997 80 WP MM DAVID 1997-09-18 03:00:00 TS 28.4430 142.149 75 960 tokyo main 754 673 POPP__________ WP211997 28.4471 142.082 65 1 28.4000 142.200 5 75 960 9 80 80 9 375 375 0 28.4700 142.126 4 68 970 28.4548 142.190 T 75 955 14 335
1997252N10171 1997 80 WP MM DAVID 1997-09-18 06:00:00 TS 29.1000 141.900 70 965 tokyo main 673 606 OOOO__________ jtwc_wp WP211997 29.1000 141.900 65 1 29.1000 142.000 5 70 965 9 80 80 9 375 375 0 29.1000 141.800 4 68 970 29.1000 141.900 T 75 955 14 345
1997252N10171 1997 80 WP MM DAVID 1997-09-18 09:00:00 TS 29.7449 141.748 70 965 tokyo main 604 526 POPP__________ WP211997 29.7625 141.720 65 1 29.8000 141.900 5 70 965 9 80 80 9 375 375 0 29.6473 141.682 4 68 970 29.7699 141.690 T 72 960 14 350
1997252N10171 1997 80 WP MM DAVID 1997-09-18 12:00:00 TS 30.4750 141.625 70 965 tokyo main 515 441 OOOO__________ jtwc_wp WP211997 30.5000 141.600 65 1 30.6000 141.600 5 70 965 9 80 80 1 450 300 0 30.3000 141.700 4 68 970 30.5000 141.600 T 70 965 15 355
1997252N10171 1997 80 WP MM DAVID 1997-09-18 15:00:00 TS 31.2755 141.584 70 965 tokyo main 431 349 POPP__________ WP211997 31.3197 141.455 65 1 31.3000 141.600 5 70 965 9 80 80 1 450 300 0 31.2125 141.706 4 68 970 31.2698 141.576 T 70 965 17 0
1997252N10171 1997 80 WP MM DAVID 1997-09-18 18:00:00 TS 32.1750 141.650 70 965 tokyo main 343 280 OOOO__________ jtwc_wp WP211997 32.2000 141.500 65 1 32.2000 141.600 5 70 965 9 80 80 1 450 300 0 32.2000 141.800 4 68 970 32.1000 141.700 T 70 965 18 9
1997252N10171 1997 80 WP MM DAVID 1997-09-18 21:00:00 TS 33.0588 141.929 70 965 tokyo main 271 226 POPP__________ WP211997 33.0394 141.852 65 1 33.2000 142.000 5 70 965 9 80 80 1 450 300 0 33.0341 141.933 4 66 972 32.9618 141.932 T 70 965 19 19
1997252N10171 1997 80 WP MM DAVID 1997-09-19 00:00:00 TS 33.9500 142.375 65 970 tokyo main 226 205 OOOO__________ jtwc_wp WP211997 34.0000 142.500 65 1 34.0000 142.300 5 65 970 9 70 70 1 450 300 0 33.9000 142.300 4 64 975 33.9000 142.400 T 70 965 22 26
1997252N10171 1997 80 WP MM DAVID 1997-09-19 03:00:00 TS 34.9891 143.079 65 970 tokyo main 213 213 POPP__________ WP211997 35.1885 143.303 65 1 35.0000 143.000 5 65 970 9 70 70 1 450 350 0 34.8799 142.939 4 61 977 34.8880 143.076 T 67 967 26 33
1997252N10171 1997 80 WP MM DAVID 1997-09-19 06:00:00 TS 36.1333 144.127 65 970 tokyo main 290 290 OOOO__________ jtwc_wp WP211997 36.5000 144.400 65 1 36.0000 144.000 5 65 970 9 70 70 1 450 350 0 36.0000 144.000 3 58 980 36.0000 144.100 T 65 970 32 41
1997252N10171 1997 80 WP MM DAVID 1997-09-19 09:00:00 TS 37.4072 145.640 65 970 tokyo main 372 372 POPP__________ WP211997 37.7843 145.777 62 0 37.3000 145.700 5 65 970 9 70 70 1 450 350 0 37.2092 145.505 3 58 980 37.2636 145.520 T 62 972 37 44
1997252N10171 1997 80 WP MM DAVID 1997-09-19 12:00:00 TS 38.7667 147.350 60 975 tokyo main 453 453 OOOO__________ jtwc_wp WP211997 39.1000 147.400 60 0 38.6000 147.300 4 60 975 9 60 60 1 450 350 0 38.6000 147.400 3 58 980 38.6000 147.200 STS 60 975 41 46
1997252N10171 1997 80 WP MM DAVID 1997-09-19 15:00:00 TS 40.2612 149.388 main 456 437 PPP___________ WP211997 40.4263 149.147 60 0 40.1264 149.565 4 975 9 1 40.2007 149.516 3 51 982 STS 44 45
1997252N10171 1997 80 WP MM DAVID 1997-09-19 18:00:00 ET 41.8556 151.444 976 tokyo main 431 337 OOO___________ jtwc_wp WP211997 41.8000 151.000 60 0 41.9000 151.800 6 976 0 0 0 41.9000 151.800 9 44 985 43 38
1997252N10171 1997 80 WP MM DAVID 1997-09-19 21:00:00 ET 43.6500 152.904 main 326 299 PP____________ WP211997 43.2541 152.869 60 0 44.0460 152.939 6 974 0 0 9 41 31
1997252N10171 1997 80 WP MM DAVID 1997-09-20 00:00:00 ET 45.4000 154.400 972 tokyo main 318 318 OO____________ jtwc_wp WP211997 44.7000 154.800 60 0 46.1000 154.000 6 972 0 0 0 40 38
1997252N10171 1997 80 WP MM DAVID 1997-09-20 03:00:00 ET 46.8115 156.373 main 362 314 PP____________ WP211997 46.0471 156.785 57 0 47.5760 155.960 6 970 0 0 38 48
1997252N10171 1997 80 WP MM DAVID 1997-09-20 06:00:00 ET 47.9500 158.600 968 tokyo main 312 313 OO____________ jtwc_wp WP211997 47.3000 158.900 55 0 48.6000 158.300 6 968 0 0 0 36 56
1997252N10171 1997 80 WP MM DAVID 1997-09-20 09:00:00 ET 48.8785 160.870 main 367 366 PP____________ WP211997 48.4627 161.211 55 0 49.2942 160.528 6 966 0 0 35 61
1997252N10171 1997 80 WP MM DAVID 1997-09-20 12:00:00 ET 49.6500 163.350 964 tokyo main 437 443 OO____________ jtwc_wp WP211997 49.5000 163.700 55 0 49.8000 163.000 6 964 0 0 0 38 65
1997252N10171 1997 80 WP MM DAVID 1997-09-20 15:00:00 ET 50.4745 166.150 main 506 506 PP____________ WP211997 50.5088 166.317 55 0 50.4402 165.984 6 962 0 0 39 69
1997252N10171 1997 80 WP MM DAVID 1997-09-20 18:00:00 ET 51.0500 169.150 960 tokyo main 618 613 OO____________ jtwc_wp WP211997 51.2000 169.100 55 0 50.9000 169.200 6 960 0 0 0 38 80
1997252N10171 1997 80 WP MM DAVID 1997-09-20 21:00:00 ET 51.1561 172.147 main 770 770 PP____________ WP211997 51.3532 172.010 55 0 50.9591 172.284 6 960 0 0 37 90
1997252N10171 1997 80 WP MM DAVID 1997-09-21 00:00:00 ET 51.0714 175.071 960 tokyo main 950 936 OO____________ jtwc_wp WP211997 51.2000 174.900 55 0 50.9000 175.300 6 960 0 0 0 36 92
1997252N10171 1997 80 WP MM DAVID 1997-09-21 03:00:00 ET 51.0050 177.896 main 922 762 PP____________ WP211997 51.0234 177.698 55 0 50.9682 178.293 6 962 0 0 35 93
1997252N10171 1997 80 EP CP DAVID 1997-09-21 06:00:00 ET 50.8600 180.580 main 749 616 OO____________ jtwc_wp WP211997 50.8000 -179.600 55 0 51.1000 181.300 6 964 0 0 0 33 97
1997252N10171 1997 80 EP CP DAVID 1997-09-21 09:00:00 NR 50.6017 183.041 main 610 473 P_____________ WP211997 50.6017 -176.959 52 0 6 0 0 32 98
1997252N10171 1997 80 EP CP DAVID 1997-09-21 12:00:00 NR 50.4000 185.600 main 468 367 O_____________ jtwc_wp WP211997 50.4000 -174.400 50 0 33 98
1997252N10171 1997 80 EP CP DAVID 1997-09-21 15:00:00 NR 50.1616 188.123 main 363 330 P_____________ WP211997 50.1616 -171.877 50 0 32 99
1997252N10171 1997 80 EP CP DAVID 1997-09-21 18:00:00 NR 49.9000 190.500 main 335 333 O_____________ jtwc_wp WP211997 49.9000 -169.500 50 0 30 101
1997252N10171 1997 80 EP CP DAVID 1997-09-21 21:00:00 NR 49.6133 192.667 main 380 380 P_____________ WP211997 49.6133 -167.333 50 0 28 102
1997252N10171 1997 80 EP CP DAVID 1997-09-22 00:00:00 NR 49.3000 194.700 main 466 O_____________ jtwc_wp WP211997 49.3000 -165.300 50 0 27 103

デジタル台風データ・検索

IBTrACS Databaseについて

本データベースは、米国NOAAが公開する1842年以降の世界の熱帯低気圧のベストトラックデータアーカイブInternational Best Track Archive for Climate Stewardship (IBTrACS)を、ウェブで閲覧しやすい形式に変換したものです。

最終更新日:2021-10-25